sensor_id;sensor_type;location;lat;lon;timestamp;pressure;altitude;pressure_sealevel;temperature;humidity
66560;BME280;53413;49.878;8.142;2023-07-22T00:01:59;99868.66;;;13.93;100.00
66560;BME280;53413;49.878;8.142;2023-07-22T00:04:25;99863.72;;;13.87;100.00
66560;BME280;53413;49.878;8.142;2023-07-22T00:06:51;99857.78;;;13.83;100.00
66560;BME280;53413;49.878;8.142;2023-07-22T00:09:17;99854.53;;;13.78;100.00
66560;BME280;53413;49.878;8.142;2023-07-22T00:11:42;99858.34;;;13.72;100.00
66560;BME280;53413;49.878;8.142;2023-07-22T00:14:08;99862.94;;;13.68;100.00
66560;BME280;53413;49.878;8.142;2023-07-22T00:16:34;99862.41;;;13.62;100.00
66560;BME280;53413;49.878;8.142;2023-07-22T00:19:00;99857.22;;;13.60;100.00
66560;BME280;53413;49.878;8.142;2023-07-22T00:21:26;99870.47;;;13.59;100.00
66560;BME280;53413;49.878;8.142;2023-07-22T00:23:51;99866.75;;;13.63;100.00
66560;BME280;53413;49.878;8.142;2023-07-22T00:26:16;99875.09;;;13.71;100.00
66560;BME280;53413;49.878;8.142;2023-07-22T00:28:42;99864.72;;;13.84;100.00
66560;BME280;53413;49.878;8.142;2023-07-22T00:31:08;99864.91;;;13.97;100.00
66560;BME280;53413;49.878;8.142;2023-07-22T00:33:34;99866.00;;;14.09;100.00
66560;BME280;53413;49.878;8.142;2023-07-22T00:35:59;99862.69;;;14.21;100.00
66560;BME280;53413;49.878;8.142;2023-07-22T00:38:24;99863.81;;;14.33;100.00
66560;BME280;53413;49.878;8.142;2023-07-22T00:40:50;99862.34;;;14.43;100.00
66560;BME280;53413;49.878;8.142;2023-07-22T00:43:15;99866.31;;;14.51;100.00
66560;BME280;53413;49.878;8.142;2023-07-22T00:45:41;99858.84;;;14.59;100.00
66560;BME280;53413;49.878;8.142;2023-07-22T00:48:08;99861.13;;;14.65;100.00
66560;BME280;53413;49.878;8.142;2023-07-22T00:50:33;99859.88;;;14.72;100.00
66560;BME280;53413;49.878;8.142;2023-07-22T00:52:59;99857.97;;;14.74;100.00
66560;BME280;53413;49.878;8.142;2023-07-22T00:55:25;99864.00;;;14.76;100.00
66560;BME280;53413;49.878;8.142;2023-07-22T00:57:51;99861.53;;;14.73;100.00
66560;BME280;53413;49.878;8.142;2023-07-22T01:00:16;99862.75;;;14.68;100.00
66560;BME280;53413;49.878;8.142;2023-07-22T01:02:42;99861.28;;;14.62;100.00
66560;BME280;53413;49.878;8.142;2023-07-22T01:05:08;99863.19;;;14.60;100.00
66560;BME280;53413;49.878;8.142;2023-07-22T01:07:38;99851.78;;;14.59;100.00
66560;BME280;53413;49.878;8.142;2023-07-22T01:10:05;99863.19;;;14.60;100.00
66560;BME280;53413;49.878;8.142;2023-07-22T01:12:31;99862.06;;;14.64;100.00
66560;BME280;53413;49.878;8.142;2023-07-22T01:14:56;99855.78;;;14.67;100.00
66560;BME280;53413;49.878;8.142;2023-07-22T01:17:22;99850.44;;;14.68;100.00
66560;BME280;53413;49.878;8.142;2023-07-22T01:19:48;99855.72;;;14.68;100.00
66560;BME280;53413;49.878;8.142;2023-07-22T01:22:14;99848.72;;;14.67;100.00
66560;BME280;53413;49.878;8.142;2023-07-22T01:24:41;99857.72;;;14.63;100.00
66560;BME280;53413;49.878;8.142;2023-07-22T01:27:08;99856.22;;;14.59;100.00
66560;BME280;53413;49.878;8.142;2023-07-22T01:29:35;99855.44;;;14.57;100.00
66560;BME280;53413;49.878;8.142;2023-07-22T01:32:00;99848.47;;;14.56;100.00
66560;BME280;53413;49.878;8.142;2023-07-22T01:34:26;99839.03;;;14.52;100.00
66560;BME280;53413;49.878;8.142;2023-07-22T01:36:51;99846.38;;;14.46;100.00
66560;BME280;53413;49.878;8.142;2023-07-22T01:39:17;99851.81;;;14.43;100.00
66560;BME280;53413;49.878;8.142;2023-07-22T01:41:43;99855.53;;;14.39;100.00
66560;BME280;53413;49.878;8.142;2023-07-22T01:44:09;99851.31;;;14.37;100.00
66560;BME280;53413;49.878;8.142;2023-07-22T01:46:35;99854.19;;;14.32;100.00
66560;BME280;53413;49.878;8.142;2023-07-22T01:49:01;99847.81;;;14.20;100.00
66560;BME280;53413;49.878;8.142;2023-07-22T01:51:27;99845.19;;;14.04;100.00
66560;BME280;53413;49.878;8.142;2023-07-22T01:53:52;99854.91;;;13.88;100.00
66560;BME280;53413;49.878;8.142;2023-07-22T01:56:18;99849.84;;;13.67;100.00
66560;BME280;53413;49.878;8.142;2023-07-22T01:58:45;99849.91;;;13.49;100.00
66560;BME280;53413;49.878;8.142;2023-07-22T02:01:11;99857.72;;;13.33;100.00
66560;BME280;53413;49.878;8.142;2023-07-22T02:03:39;99855.88;;;13.18;100.00
66560;BME280;53413;49.878;8.142;2023-07-22T02:06:05;99860.16;;;13.03;100.00
66560;BME280;53413;49.878;8.142;2023-07-22T02:08:31;99863.41;;;12.90;100.00
66560;BME280;53413;49.878;8.142;2023-07-22T02:11:07;99862.31;;;12.77;100.00
66560;BME280;53413;49.878;8.142;2023-07-22T02:13:34;99863.75;;;12.65;100.00
66560;BME280;53413;49.878;8.142;2023-07-22T02:16:01;99860.75;;;12.55;100.00
66560;BME280;53413;49.878;8.142;2023-07-22T02:18:27;99863.81;;;12.46;100.00
66560;BME280;53413;49.878;8.142;2023-07-22T02:20:52;99865.97;;;12.38;100.00
66560;BME280;53413;49.878;8.142;2023-07-22T02:23:18;99863.66;;;12.31;100.00
66560;BME280;53413;49.878;8.142;2023-07-22T02:25:44;99863.91;;;12.25;100.00
66560;BME280;53413;49.878;8.142;2023-07-22T02:28:09;99867.56;;;12.23;100.00
66560;BME280;53413;49.878;8.142;2023-07-22T02:30:36;99874.75;;;12.19;100.00
66560;BME280;53413;49.878;8.142;2023-07-22T02:33:02;99870.53;;;12.15;100.00
66560;BME280;53413;49.878;8.142;2023-07-22T02:35:28;99870.75;;;12.10;100.00
66560;BME280;53413;49.878;8.142;2023-07-22T02:37:53;99878.00;;;12.05;100.00
66560;BME280;53413;49.878;8.142;2023-07-22T02:40:18;99872.94;;;12.00;100.00
66560;BME280;53413;49.878;8.142;2023-07-22T02:42:44;99868.75;;;11.96;100.00
66560;BME280;53413;49.878;8.142;2023-07-22T02:45:10;99871.66;;;11.90;100.00
66560;BME280;53413;49.878;8.142;2023-07-22T02:47:35;99874.56;;;11.84;100.00
66560;BME280;53413;49.878;8.142;2023-07-22T02:50:01;99880.88;;;11.80;100.00
66560;BME280;53413;49.878;8.142;2023-07-22T02:52:26;99881.13;;;11.74;100.00
66560;BME280;53413;49.878;8.142;2023-07-22T02:55:09;99877.19;;;11.65;100.00
66560;BME280;53413;49.878;8.142;2023-07-22T02:57:39;99881.84;;;11.58;100.00
66560;BME280;53413;49.878;8.142;2023-07-22T03:00:05;99872.47;;;11.52;100.00
66560;BME280;53413;49.878;8.142;2023-07-22T03:02:37;99874.22;;;11.52;100.00
66560;BME280;53413;49.878;8.142;2023-07-22T03:05:07;99869.78;;;11.54;100.00
66560;BME280;53413;49.878;8.142;2023-07-22T03:07:37;99874.75;;;11.60;100.00
66560;BME280;53413;49.878;8.142;2023-07-22T03:10:03;99877.31;;;11.62;100.00
66560;BME280;53413;49.878;8.142;2023-07-22T03:12:29;99875.69;;;11.59;100.00
66560;BME280;53413;49.878;8.142;2023-07-22T03:14:54;99884.59;;;11.55;100.00
66560;BME280;53413;49.878;8.142;2023-07-22T03:17:20;99876.06;;;11.50;100.00
66560;BME280;53413;49.878;8.142;2023-07-22T03:19:45;99873.59;;;11.47;100.00
66560;BME280;53413;49.878;8.142;2023-07-22T03:22:14;99873.50;;;11.48;100.00
66560;BME280;53413;49.878;8.142;2023-07-22T03:24:39;99871.59;;;11.52;100.00
66560;BME280;53413;49.878;8.142;2023-07-22T03:27:05;99871.56;;;11.53;100.00
66560;BME280;53413;49.878;8.142;2023-07-22T03:29:32;99868.06;;;11.53;100.00
66560;BME280;53413;49.878;8.142;2023-07-22T03:31:58;99871.59;;;11.52;100.00
66560;BME280;53413;49.878;8.142;2023-07-22T03:34:26;99859.47;;;11.49;100.00
66560;BME280;53413;49.878;8.142;2023-07-22T03:36:51;99872.72;;;11.46;100.00
66560;BME280;53413;49.878;8.142;2023-07-22T03:39:16;99868.47;;;11.44;100.00
66560;BME280;53413;49.878;8.142;2023-07-22T03:41:42;99875.56;;;11.42;100.00
66560;BME280;53413;49.878;8.142;2023-07-22T03:44:07;99872.16;;;11.39;100.00
66560;BME280;53413;49.878;8.142;2023-07-22T03:46:32;99875.69;;;11.38;100.00
66560;BME280;53413;49.878;8.142;2023-07-22T03:48:58;99882.63;;;11.39;100.00
66560;BME280;53413;49.878;8.142;2023-07-22T03:51:23;99883.31;;;11.45;100.00
66560;BME280;53413;49.878;8.142;2023-07-22T03:53:48;99880.56;;;11.48;100.00
66560;BME280;53413;49.878;8.142;2023-07-22T03:56:13;99872.53;;;11.51;100.00
66560;BME280;53413;49.878;8.142;2023-07-22T03:58:39;99871.59;;;11.52;100.00
66560;BME280;53413;49.878;8.142;2023-07-22T04:01:04;99876.81;;;11.53;100.00
66560;BME280;53413;49.878;8.142;2023-07-22T04:03:30;99878.44;;;11.56;100.00
66560;BME280;53413;49.878;8.142;2023-07-22T04:05:56;99869.63;;;11.57;100.00
66560;BME280;53413;49.878;8.142;2023-07-22T04:08:21;99874.03;;;11.57;100.00
66560;BME280;53413;49.878;8.142;2023-07-22T04:10:54;99866.94;;;11.59;100.00
66560;BME280;53413;49.878;8.142;2023-07-22T04:13:20;99868.66;;;11.60;100.00
66560;BME280;53413;49.878;8.142;2023-07-22T04:15:46;99878.00;;;11.65;100.00
66560;BME280;53413;49.878;8.142;2023-07-22T04:18:12;99876.03;;;11.70;100.00
66560;BME280;53413;49.878;8.142;2023-07-22T04:20:37;99867.81;;;11.78;100.00
66560;BME280;53413;49.878;8.142;2023-07-22T04:23:02;99869.25;;;11.85;100.00
66560;BME280;53413;49.878;8.142;2023-07-22T04:25:28;99870.66;;;11.93;100.00
66560;BME280;53413;49.878;8.142;2023-07-22T04:27:53;99873.22;;;11.94;100.00
66560;BME280;53413;49.878;8.142;2023-07-22T04:30:18;99868.56;;;12.01;100.00
66560;BME280;53413;49.878;8.142;2023-07-22T04:32:49;99871.69;;;12.09;100.00
66560;BME280;53413;49.878;8.142;2023-07-22T04:35:15;99870.41;;;12.18;100.00
66560;BME280;53413;49.878;8.142;2023-07-22T04:37:45;99866.47;;;12.27;100.00
66560;BME280;53413;49.878;8.142;2023-07-22T04:40:11;99876.47;;;12.38;100.00
66560;BME280;53413;49.878;8.142;2023-07-22T04:42:42;99878.38;;;12.53;100.00
66560;BME280;53413;49.878;8.142;2023-07-22T04:45:08;99875.06;;;12.67;100.00
66560;BME280;53413;49.878;8.142;2023-07-22T04:47:38;99869.88;;;12.83;100.00
66560;BME280;53413;49.878;8.142;2023-07-22T04:50:08;99878.72;;;13.00;100.00
66560;BME280;53413;49.878;8.142;2023-07-22T04:52:35;99877.16;;;13.13;100.00
66560;BME280;53413;49.878;8.142;2023-07-22T04:55:02;99873.97;;;13.24;100.00
66560;BME280;53413;49.878;8.142;2023-07-22T04:57:34;99875.13;;;13.36;100.00
66560;BME280;53413;49.878;8.142;2023-07-22T04:59:59;99877.00;;;13.51;100.00
66560;BME280;53413;49.878;8.142;2023-07-22T05:02:25;99871.69;;;13.69;100.00
66560;BME280;53413;49.878;8.142;2023-07-22T05:04:50;99872.41;;;13.89;100.00
66560;BME280;53413;49.878;8.142;2023-07-22T05:07:15;99866.88;;;14.09;100.00
66560;BME280;53413;49.878;8.142;2023-07-22T05:09:40;99870.19;;;14.29;100.00
66560;BME280;53413;49.878;8.142;2023-07-22T05:12:06;99880.28;;;14.53;100.00
66560;BME280;53413;49.878;8.142;2023-07-22T05:14:31;99874.56;;;14.76;100.00
66560;BME280;53413;49.878;8.142;2023-07-22T05:16:57;99868.50;;;15.05;100.00
66560;BME280;53413;49.878;8.142;2023-07-22T05:19:22;99878.38;;;15.32;100.00
66560;BME280;53413;49.878;8.142;2023-07-22T05:21:47;99888.09;;;15.60;100.00
66560;BME280;53413;49.878;8.142;2023-07-22T05:24:13;99880.84;;;15.93;100.00
66560;BME280;53413;49.878;8.142;2023-07-22T05:26:38;99877.47;;;16.33;100.00
66560;BME280;53413;49.878;8.142;2023-07-22T05:29:03;99874.22;;;16.69;100.00
66560;BME280;53413;49.878;8.142;2023-07-22T05:31:29;99878.47;;;17.12;100.00
66560;BME280;53413;49.878;8.142;2023-07-22T05:33:54;99878.81;;;17.46;100.00
66560;BME280;53413;49.878;8.142;2023-07-22T05:36:19;99883.09;;;17.99;100.00
66560;BME280;53413;49.878;8.142;2023-07-22T05:38:45;99877.16;;;18.81;97.42
66560;BME280;53413;49.878;8.142;2023-07-22T05:41:10;99879.94;;;19.15;91.43
66560;BME280;53413;49.878;8.142;2023-07-22T05:43:36;99883.09;;;19.09;89.71
66560;BME280;53413;49.878;8.142;2023-07-22T05:46:01;99875.41;;;18.93;88.97
66560;BME280;53413;49.878;8.142;2023-07-22T05:48:27;99878.63;;;18.85;88.46
66560;BME280;53413;49.878;8.142;2023-07-22T05:50:52;99880.41;;;18.85;88.91
66560;BME280;53413;49.878;8.142;2023-07-22T05:53:17;99883.25;;;18.70;90.18
66560;BME280;53413;49.878;8.142;2023-07-22T05:55:43;99884.91;;;18.60;90.53
66560;BME280;53413;49.878;8.142;2023-07-22T05:58:15;99887.75;;;18.45;91.21
66560;BME280;53413;49.878;8.142;2023-07-22T06:00:40;99886.72;;;18.35;90.82
66560;BME280;53413;49.878;8.142;2023-07-22T06:03:06;99888.59;;;18.22;90.84
66560;BME280;53413;49.878;8.142;2023-07-22T06:05:31;99886.47;;;18.14;91.68
66560;BME280;53413;49.878;8.142;2023-07-22T06:07:56;99885.63;;;18.13;92.12
66560;BME280;53413;49.878;8.142;2023-07-22T06:10:22;99883.59;;;18.17;91.84
66560;BME280;53413;49.878;8.142;2023-07-22T06:12:47;99892.19;;;18.21;91.06
66560;BME280;53413;49.878;8.142;2023-07-22T06:15:13;99882.19;;;18.24;92.57
66560;BME280;53413;49.878;8.142;2023-07-22T06:17:38;99889.50;;;18.34;91.67
66560;BME280;53413;49.878;8.142;2023-07-22T06:20:04;99886.50;;;18.38;91.33
66560;BME280;53413;49.878;8.142;2023-07-22T06:22:29;99884.75;;;18.50;90.94
66560;BME280;53413;49.878;8.142;2023-07-22T06:24:55;99890.34;;;18.58;88.83
66560;BME280;53413;49.878;8.142;2023-07-22T06:27:20;99898.47;;;18.68;89.26
66560;BME280;53413;49.878;8.142;2023-07-22T06:29:45;99900.44;;;18.77;91.67
66560;BME280;53413;49.878;8.142;2023-07-22T06:32:11;99899.75;;;18.87;90.48
66560;BME280;53413;49.878;8.142;2023-07-22T06:34:36;99902.41;;;18.87;89.91
66560;BME280;53413;49.878;8.142;2023-07-22T06:37:02;99901.38;;;19.01;88.69
66560;BME280;53413;49.878;8.142;2023-07-22T06:39:28;99907.09;;;19.19;87.84
66560;BME280;53413;49.878;8.142;2023-07-22T06:41:53;99908.00;;;19.31;86.75
66560;BME280;53413;49.878;8.142;2023-07-22T06:44:18;99914.66;;;19.36;86.51
66560;BME280;53413;49.878;8.142;2023-07-22T06:46:44;99913.22;;;19.55;85.13
66560;BME280;53413;49.878;8.142;2023-07-22T06:49:09;99915.78;;;19.68;83.71
66560;BME280;53413;49.878;8.142;2023-07-22T06:51:35;99916.63;;;19.80;82.96
66560;BME280;53413;49.878;8.142;2023-07-22T06:54:02;99920.00;;;19.82;83.64
66560;BME280;53413;49.878;8.142;2023-07-22T06:56:27;99917.38;;;20.05;79.49
66560;BME280;53413;49.878;8.142;2023-07-22T06:58:53;99918.81;;;20.20;79.16
66560;BME280;53413;49.878;8.142;2023-07-22T07:01:18;99915.38;;;20.41;77.18
66560;BME280;53413;49.878;8.142;2023-07-22T07:03:44;99920.22;;;20.47;76.25
66560;BME280;53413;49.878;8.142;2023-07-22T07:06:09;99908.31;;;20.63;75.75
66560;BME280;53413;49.878;8.142;2023-07-22T07:08:34;99912.63;;;20.86;73.94
66560;BME280;53413;49.878;8.142;2023-07-22T07:11:00;99917.81;;;20.88;73.57
66560;BME280;53413;49.878;8.142;2023-07-22T07:13:28;99915.63;;;20.82;71.59
66560;BME280;53413;49.878;8.142;2023-07-22T07:15:54;99908.94;;;20.99;71.32
66560;BME280;53413;49.878;8.142;2023-07-22T07:18:20;99907.69;;;21.24;70.96
66560;BME280;53413;49.878;8.142;2023-07-22T07:20:45;99908.94;;;21.62;68.72
66560;BME280;53413;49.878;8.142;2023-07-22T07:23:12;99903.16;;;22.49;64.81
66560;BME280;53413;49.878;8.142;2023-07-22T07:25:38;99914.59;;;22.90;63.36
66560;BME280;53413;49.878;8.142;2023-07-22T07:28:03;99915.28;;;23.12;61.90
66560;BME280;53413;49.878;8.142;2023-07-22T07:30:29;99917.50;;;23.36;60.64
66560;BME280;53413;49.878;8.142;2023-07-22T07:32:54;99921.28;;;23.91;58.87
66560;BME280;53413;49.878;8.142;2023-07-22T07:35:20;99908.22;;;24.98;56.93
66560;BME280;53413;49.878;8.142;2023-07-22T07:37:45;99911.28;;;26.84;52.95
66560;BME280;53413;49.878;8.142;2023-07-22T07:40:11;99910.59;;;30.99;44.35
66560;BME280;53413;49.878;8.142;2023-07-22T07:42:37;99914.09;;;36.23;34.43
66560;BME280;53413;49.878;8.142;2023-07-22T07:45:02;99913.00;;;38.21;29.95
66560;BME280;53413;49.878;8.142;2023-07-22T07:47:28;99922.28;;;36.54;31.32
66560;BME280;53413;49.878;8.142;2023-07-22T07:49:53;99914.38;;;35.66;32.16
66560;BME280;53413;49.878;8.142;2023-07-22T07:52:18;99918.13;;;35.46;32.31
66560;BME280;53413;49.878;8.142;2023-07-22T07:54:44;99908.59;;;35.93;31.94
66560;BME280;53413;49.878;8.142;2023-07-22T07:57:09;99915.09;;;38.02;30.26
66560;BME280;53413;49.878;8.142;2023-07-22T07:59:34;99904.31;;;40.05;27.11
66560;BME280;53413;49.878;8.142;2023-07-22T08:02:00;99915.38;;;41.03;26.42
66560;BME280;53413;49.878;8.142;2023-07-22T08:04:25;99908.66;;;40.01;26.44
66560;BME280;53413;49.878;8.142;2023-07-22T08:06:50;99903.56;;;39.87;26.34
66560;BME280;53413;49.878;8.142;2023-07-22T08:09:16;99900.69;;;41.19;24.89
66560;BME280;53413;49.878;8.142;2023-07-22T08:11:44;99903.66;;;43.12;23.90
66560;BME280;53413;49.878;8.142;2023-07-22T08:14:10;99903.66;;;42.71;24.16
66560;BME280;53413;49.878;8.142;2023-07-22T08:16:35;99900.06;;;42.96;24.28
66560;BME280;53413;49.878;8.142;2023-07-22T08:19:01;99897.31;;;42.60;23.58
66560;BME280;53413;49.878;8.142;2023-07-22T08:21:26;99894.56;;;45.02;22.49
66560;BME280;53413;49.878;8.142;2023-07-22T08:23:51;99903.03;;;44.52;22.24
66560;BME280;53413;49.878;8.142;2023-07-22T08:26:17;99897.97;;;41.78;23.53
66560;BME280;53413;49.878;8.142;2023-07-22T08:28:46;99891.81;;;39.08;26.07
66560;BME280;53413;49.878;8.142;2023-07-22T08:31:12;99896.41;;;35.77;28.89
66560;BME280;53413;49.878;8.142;2023-07-22T08:33:37;99893.16;;;34.48;30.64
66560;BME280;53413;49.878;8.142;2023-07-22T08:36:02;99898.53;;;33.64;32.57
66560;BME280;53413;49.878;8.142;2023-07-22T08:38:28;99900.47;;;33.09;32.52
66560;BME280;53413;49.878;8.142;2023-07-22T08:40:53;99895.22;;;33.41;32.13
66560;BME280;53413;49.878;8.142;2023-07-22T08:43:22;99901.88;;;34.57;30.15
66560;BME280;53413;49.878;8.142;2023-07-22T08:45:52;99890.63;;;35.54;29.54
66560;BME280;53413;49.878;8.142;2023-07-22T08:48:17;99890.44;;;35.49;29.09
66560;BME280;53413;49.878;8.142;2023-07-22T08:53:09;99889.81;;;35.03;29.74
66560;BME280;53413;49.878;8.142;2023-07-22T08:55:35;99886.19;;;34.84;30.17
66560;BME280;53413;49.878;8.142;2023-07-22T08:58:02;99888.13;;;33.40;31.19
66560;BME280;53413;49.878;8.142;2023-07-22T09:00:27;99890.88;;;32.87;31.72
66560;BME280;53413;49.878;8.142;2023-07-22T09:02:53;99887.25;;;32.39;33.26
66560;BME280;53413;49.878;8.142;2023-07-22T09:05:19;99891.47;;;33.42;32.04
66560;BME280;53413;49.878;8.142;2023-07-22T09:07:47;99879.41;;;35.00;30.59
66560;BME280;53413;49.878;8.142;2023-07-22T09:10:15;99882.00;;;36.37;28.63
66560;BME280;53413;49.878;8.142;2023-07-22T09:12:41;99873.97;;;37.97;26.79
66560;BME280;53413;49.878;8.142;2023-07-22T09:15:11;99879.84;;;38.98;26.24
66560;BME280;53413;49.878;8.142;2023-07-22T09:17:38;99875.00;;;39.83;24.99
66560;BME280;53413;49.878;8.142;2023-07-22T09:20:04;99882.25;;;40.77;24.35
66560;BME280;53413;49.878;8.142;2023-07-22T09:22:31;99882.22;;;41.09;23.25
66560;BME280;53413;49.878;8.142;2023-07-22T09:27:42;99874.16;;;39.21;25.84
66560;BME280;53413;49.878;8.142;2023-07-22T09:30:36;99881.88;;;38.56;25.65
66560;BME280;53413;49.878;8.142;2023-07-22T09:33:03;99878.56;;;38.08;25.94
66560;BME280;53413;49.878;8.142;2023-07-22T09:37:56;99875.44;;;36.57;26.96
66560;BME280;53413;49.878;8.142;2023-07-22T09:40:24;99873.97;;;35.37;27.82
66560;BME280;53413;49.878;8.142;2023-07-22T09:42:52;99863.50;;;34.97;29.10
66560;BME280;53413;49.878;8.142;2023-07-22T09:45:18;99861.47;;;34.86;28.91
66560;BME280;53413;49.878;8.142;2023-07-22T09:47:46;99850.88;;;36.57;27.05
66560;BME280;53413;49.878;8.142;2023-07-22T09:50:20;99856.28;;;38.62;24.76
66560;BME280;53413;49.878;8.142;2023-07-22T09:52:50;99849.78;;;38.34;25.52
66560;BME280;53413;49.878;8.142;2023-07-22T09:55:18;99836.03;;;37.48;25.76
66560;BME280;53413;49.878;8.142;2023-07-22T09:57:46;99828.56;;;37.55;25.91
66560;BME280;53413;49.878;8.142;2023-07-22T10:00:14;99835.47;;;36.50;26.96
66560;BME280;53413;49.878;8.142;2023-07-22T10:02:41;99837.34;;;35.89;27.79
66560;BME280;53413;49.878;8.142;2023-07-22T10:05:12;99837.75;;;37.01;26.33
66560;BME280;53413;49.878;8.142;2023-07-22T10:07:42;99838.44;;;36.61;26.21
66560;BME280;53413;49.878;8.142;2023-07-22T10:10:10;99840.16;;;36.01;27.38
66560;BME280;53413;49.878;8.142;2023-07-22T10:12:36;99839.38;;;35.44;27.79
66560;BME280;53413;49.878;8.142;2023-07-22T10:15:02;99828.78;;;34.92;28.71
66560;BME280;53413;49.878;8.142;2023-07-22T10:17:29;99828.75;;;34.42;29.10
66560;BME280;53413;49.878;8.142;2023-07-22T10:19:55;99821.69;;;34.27;29.22
66560;BME280;53413;49.878;8.142;2023-07-22T10:22:21;99815.06;;;33.77;30.04
66560;BME280;53413;49.878;8.142;2023-07-22T10:24:47;99825.91;;;33.19;30.50
66560;BME280;53413;49.878;8.142;2023-07-22T10:27:14;99822.34;;;32.31;31.68
66560;BME280;53413;49.878;8.142;2023-07-22T10:29:41;99823.19;;;31.69;32.18
66560;BME280;53413;49.878;8.142;2023-07-22T10:32:07;99823.59;;;31.02;33.71
66560;BME280;53413;49.878;8.142;2023-07-22T10:34:32;99820.16;;;30.59;34.02
66560;BME280;53413;49.878;8.142;2023-07-22T10:36:58;99824.91;;;30.35;34.84
66560;BME280;53413;49.878;8.142;2023-07-22T10:39:27;99818.78;;;30.48;33.58
66560;BME280;53413;49.878;8.142;2023-07-22T10:42:03;99815.94;;;30.78;33.08
66560;BME280;53413;49.878;8.142;2023-07-22T10:44:38;99817.03;;;31.47;32.59
66560;BME280;53413;49.878;8.142;2023-07-22T10:47:04;99812.03;;;31.92;32.79
66560;BME280;53413;49.878;8.142;2023-07-22T10:49:48;99813.50;;;32.02;31.58
66560;BME280;53413;49.878;8.142;2023-07-22T10:52:14;99806.38;;;31.39;32.45
66560;BME280;53413;49.878;8.142;2023-07-22T10:54:39;99808.31;;;31.58;32.24
66560;BME280;53413;49.878;8.142;2023-07-22T10:59:48;99802.75;;;32.42;31.02
66560;BME280;53413;49.878;8.142;2023-07-22T11:02:28;99789.81;;;32.64;30.82
66560;BME280;53413;49.878;8.142;2023-07-22T11:04:56;99799.44;;;32.47;30.11
66560;BME280;53413;49.878;8.142;2023-07-22T11:07:34;99794.38;;;32.23;30.13
66560;BME280;53413;49.878;8.142;2023-07-22T11:10:19;99795.28;;;31.33;30.68
66560;BME280;53413;49.878;8.142;2023-07-22T11:12:45;99786.53;;;30.96;31.73
66560;BME280;53413;49.878;8.142;2023-07-22T11:15:11;99781.47;;;31.15;32.08
66560;BME280;53413;49.878;8.142;2023-07-22T11:17:39;99781.72;;;30.98;31.68
66560;BME280;53413;49.878;8.142;2023-07-22T11:20:05;99775.41;;;30.56;32.07
66560;BME280;53413;49.878;8.142;2023-07-22T11:22:30;99769.91;;;30.49;32.51
66560;BME280;53413;49.878;8.142;2023-07-22T11:24:56;99776.09;;;30.93;32.32
66560;BME280;53413;49.878;8.142;2023-07-22T11:27:25;99768.81;;;30.94;32.04
66560;BME280;53413;49.878;8.142;2023-07-22T11:29:50;99770.13;;;31.05;32.40
66560;BME280;53413;49.878;8.142;2023-07-22T11:32:18;99764.94;;;31.03;31.86
66560;BME280;53413;49.878;8.142;2023-07-22T11:34:44;99755.47;;;30.57;32.01
66560;BME280;53413;49.878;8.142;2023-07-22T11:37:10;99762.03;;;30.04;32.47
66560;BME280;53413;49.878;8.142;2023-07-22T11:39:35;99760.09;;;29.98;32.38
66560;BME280;53413;49.878;8.142;2023-07-22T11:42:03;99754.78;;;29.90;32.43
66560;BME280;53413;49.878;8.142;2023-07-22T11:44:30;99744.72;;;30.20;32.33
66560;BME280;53413;49.878;8.142;2023-07-22T11:46:55;99738.00;;;30.38;32.17
66560;BME280;53413;49.878;8.142;2023-07-22T11:49:31;99742.03;;;30.70;31.91
66560;BME280;53413;49.878;8.142;2023-07-22T11:51:59;99739.56;;;31.11;32.36
66560;BME280;53413;49.878;8.142;2023-07-22T11:54:25;99750.91;;;31.21;31.35
66560;BME280;53413;49.878;8.142;2023-07-22T11:56:51;99732.09;;;30.78;31.41
66560;BME280;53413;49.878;8.142;2023-07-22T11:59:16;99722.78;;;30.87;31.03
66560;BME280;53413;49.878;8.142;2023-07-22T12:01:45;99729.81;;;30.81;30.54
66560;BME280;53413;49.878;8.142;2023-07-22T12:04:12;99728.03;;;30.95;30.70
66560;BME280;53413;49.878;8.142;2023-07-22T12:06:38;99721.78;;;31.30;29.47
66560;BME280;53413;49.878;8.142;2023-07-22T12:09:03;99724.91;;;31.27;29.91
66560;BME280;53413;49.878;8.142;2023-07-22T12:11:32;99722.19;;;31.27;29.57
66560;BME280;53413;49.878;8.142;2023-07-22T12:14:08;99720.88;;;31.16;30.67
66560;BME280;53413;49.878;8.142;2023-07-22T12:16:38;99709.75;;;31.39;30.17
66560;BME280;53413;49.878;8.142;2023-07-22T12:19:05;99712.47;;;31.53;29.25
66560;BME280;53413;49.878;8.142;2023-07-22T12:21:31;99705.06;;;31.75;29.43
66560;BME280;53413;49.878;8.142;2023-07-22T12:23:57;99706.09;;;31.74;29.43
66560;BME280;53413;49.878;8.142;2023-07-22T12:26:22;99706.91;;;31.61;28.98
66560;BME280;53413;49.878;8.142;2023-07-22T12:28:48;99705.16;;;31.40;29.51
66560;BME280;53413;49.878;8.142;2023-07-22T12:31:13;99706.22;;;31.45;29.92
66560;BME280;53413;49.878;8.142;2023-07-22T12:33:39;99703.09;;;31.42;29.65
66560;BME280;53413;49.878;8.142;2023-07-22T12:36:04;99715.72;;;31.21;29.29
66560;BME280;53413;49.878;8.142;2023-07-22T12:38:30;99716.34;;;30.88;30.72
66560;BME280;53413;49.878;8.142;2023-07-22T12:40:56;99711.09;;;30.80;30.41
66560;BME280;53413;49.878;8.142;2023-07-22T12:43:21;99711.88;;;30.74;30.67
66560;BME280;53413;49.878;8.142;2023-07-22T12:45:46;99705.94;;;30.56;30.89
66560;BME280;53413;49.878;8.142;2023-07-22T12:48:12;99704.97;;;30.43;30.56
66560;BME280;53413;49.878;8.142;2023-07-22T12:50:37;99709.75;;;30.69;30.71
66560;BME280;53413;49.878;8.142;2023-07-22T12:53:03;99695.69;;;30.80;30.31
66560;BME280;53413;49.878;8.142;2023-07-22T12:55:29;99695.97;;;30.57;30.26
66560;BME280;53413;49.878;8.142;2023-07-22T12:57:55;99698.66;;;30.29;30.90
66560;BME280;53413;49.878;8.142;2023-07-22T13:00:21;99697.09;;;30.19;30.99
66560;BME280;53413;49.878;8.142;2023-07-22T13:02:47;99699.78;;;30.19;31.17